sensor_id;sensor_type;location;lat;lon;timestamp;P1;durP1;ratioP1;P2;durP2;ratioP2
11090;SDS011;5599;52.210;21.046;2023-09-19T00:01:52;11.85;;;10.75;;
11090;SDS011;5599;52.210;21.046;2023-09-19T00:04:24;11.18;;;10.07;;
11090;SDS011;5599;52.210;21.046;2023-09-19T00:06:56;11.52;;;10.40;;
11090;SDS011;5599;52.210;21.046;2023-09-19T00:09:25;11.18;;;10.02;;
11090;SDS011;5599;52.210;21.046;2023-09-19T00:11:56;13.02;;;10.45;;
11090;SDS011;5599;52.210;21.046;2023-09-19T00:14:26;12.45;;;10.10;;
11090;SDS011;5599;52.210;21.046;2023-09-19T00:16:55;13.18;;;10.82;;
11090;SDS011;5599;52.210;21.046;2023-09-19T00:19:25;11.05;;;9.95;;
11090;SDS011;5599;52.210;21.046;2023-09-19T00:21:54;11.45;;;10.25;;
11090;SDS011;5599;52.210;21.046;2023-09-19T00:24:23;11.73;;;10.60;;
11090;SDS011;5599;52.210;21.046;2023-09-19T00:26:56;12.65;;;10.75;;
11090;SDS011;5599;52.210;21.046;2023-09-19T00:29:26;11.05;;;10.05;;
11090;SDS011;5599;52.210;21.046;2023-09-19T00:31:56;12.75;;;10.50;;
11090;SDS011;5599;52.210;21.046;2023-09-19T00:34:26;13.10;;;10.50;;
11090;SDS011;5599;52.210;21.046;2023-09-19T00:36:55;11.90;;;10.80;;
11090;SDS011;5599;52.210;21.046;2023-09-19T00:39:24;11.63;;;10.48;;
11090;SDS011;5599;52.210;21.046;2023-09-19T00:41:58;10.73;;;9.73;;
11090;SDS011;5599;52.210;21.046;2023-09-19T00:44:32;12.10;;;10.00;;
11090;SDS011;5599;52.210;21.046;2023-09-19T00:47:04;10.70;;;9.60;;
11090;SDS011;5599;52.210;21.046;2023-09-19T00:49:34;11.95;;;10.45;;
11090;SDS011;5599;52.210;21.046;2023-09-19T00:52:05;10.90;;;10.00;;
11090;SDS011;5599;52.210;21.046;2023-09-19T00:54:37;11.27;;;10.27;;
11090;SDS011;5599;52.210;21.046;2023-09-19T00:57:09;12.25;;;10.38;;
11090;SDS011;5599;52.210;21.046;2023-09-19T00:59:38;12.00;;;10.77;;
11090;SDS011;5599;52.210;21.046;2023-09-19T01:02:08;11.27;;;10.02;;
11090;SDS011;5599;52.210;21.046;2023-09-19T01:04:38;10.60;;;9.70;;
11090;SDS011;5599;52.210;21.046;2023-09-19T01:07:08;11.95;;;10.60;;
11090;SDS011;5599;52.210;21.046;2023-09-19T01:09:38;11.75;;;10.48;;
11090;SDS011;5599;52.210;21.046;2023-09-19T01:12:08;11.65;;;10.45;;
11090;SDS011;5599;52.210;21.046;2023-09-19T01:14:41;11.25;;;10.07;;
11090;SDS011;5599;52.210;21.046;2023-09-19T01:17:20;11.23;;;10.13;;
11090;SDS011;5599;52.210;21.046;2023-09-19T01:22:56;11.55;;;10.45;;
11090;SDS011;5599;52.210;21.046;2023-09-19T01:25:42;12.32;;;11.07;;
11090;SDS011;5599;52.210;21.046;2023-09-19T01:28:45;11.60;;;10.50;;
11090;SDS011;5599;52.210;21.046;2023-09-19T01:31:26;11.82;;;10.63;;
11090;SDS011;5599;52.210;21.046;2023-09-19T01:34:01;11.52;;;10.38;;
11090;SDS011;5599;52.210;21.046;2023-09-19T01:36:34;11.73;;;10.52;;
11090;SDS011;5599;52.210;21.046;2023-09-19T01:39:06;12.30;;;11.13;;
11090;SDS011;5599;52.210;21.046;2023-09-19T01:41:50;11.95;;;10.85;;
11090;SDS011;5599;52.210;21.046;2023-09-19T01:44:25;11.38;;;10.32;;
11090;SDS011;5599;52.210;21.046;2023-09-19T01:47:04;12.23;;;9.85;;
11090;SDS011;5599;52.210;21.046;2023-09-19T01:49:42;11.90;;;10.65;;
11090;SDS011;5599;52.210;21.046;2023-09-19T01:52:18;11.40;;;10.07;;
11090;SDS011;5599;52.210;21.046;2023-09-19T01:54:50;11.25;;;10.10;;
11090;SDS011;5599;52.210;21.046;2023-09-19T01:57:26;11.52;;;10.52;;
11090;SDS011;5599;52.210;21.046;2023-09-19T02:00:01;11.52;;;10.52;;
11090;SDS011;5599;52.210;21.046;2023-09-19T02:02:42;11.30;;;10.23;;
11090;SDS011;5599;52.210;21.046;2023-09-19T02:05:21;14.65;;;11.57;;
11090;SDS011;5599;52.210;21.046;2023-09-19T02:07:51;11.43;;;10.43;;
11090;SDS011;5599;52.210;21.046;2023-09-19T02:10:21;11.32;;;10.32;;
11090;SDS011;5599;52.210;21.046;2023-09-19T02:12:51;12.10;;;10.90;;
11090;SDS011;5599;52.210;21.046;2023-09-19T02:15:20;11.20;;;10.10;;
11090;SDS011;5599;52.210;21.046;2023-09-19T02:17:51;11.73;;;10.70;;
11090;SDS011;5599;52.210;21.046;2023-09-19T02:20:20;11.43;;;10.30;;
11090;SDS011;5599;52.210;21.046;2023-09-19T02:22:49;12.07;;;10.30;;
11090;SDS011;5599;52.210;21.046;2023-09-19T02:25:19;12.68;;;11.25;;
11090;SDS011;5599;52.210;21.046;2023-09-19T02:27:48;11.73;;;10.57;;
11090;SDS011;5599;52.210;21.046;2023-09-19T02:30:22;12.77;;;11.48;;
11090;SDS011;5599;52.210;21.046;2023-09-19T02:32:55;11.90;;;10.73;;
11090;SDS011;5599;52.210;21.046;2023-09-19T02:35:24;11.55;;;10.45;;
11090;SDS011;5599;52.210;21.046;2023-09-19T02:37:55;12.27;;;11.00;;
11090;SDS011;5599;52.210;21.046;2023-09-19T02:40:24;10.80;;;9.90;;
11090;SDS011;5599;52.210;21.046;2023-09-19T02:42:55;11.70;;;10.30;;
11090;SDS011;5599;52.210;21.046;2023-09-19T02:45:26;11.85;;;10.75;;
11090;SDS011;5599;52.210;21.046;2023-09-19T02:47:58;12.52;;;10.90;;
11090;SDS011;5599;52.210;21.046;2023-09-19T02:50:30;14.18;;;11.38;;
11090;SDS011;5599;52.210;21.046;2023-09-19T02:53:00;11.93;;;10.70;;
11090;SDS011;5599;52.210;21.046;2023-09-19T02:55:30;12.32;;;11.32;;
11090;SDS011;5599;52.210;21.046;2023-09-19T02:58:00;15.10;;;11.50;;
11090;SDS011;5599;52.210;21.046;2023-09-19T03:00:32;12.73;;;11.52;;
11090;SDS011;5599;52.210;21.046;2023-09-19T03:03:04;12.38;;;11.05;;
11090;SDS011;5599;52.210;21.046;2023-09-19T03:05:35;12.40;;;11.20;;
11090;SDS011;5599;52.210;21.046;2023-09-19T03:08:05;11.45;;;10.27;;
11090;SDS011;5599;52.210;21.046;2023-09-19T03:10:35;12.35;;;11.25;;
11090;SDS011;5599;52.210;21.046;2023-09-19T03:13:04;12.15;;;11.07;;
11090;SDS011;5599;52.210;21.046;2023-09-19T03:15:36;12.77;;;11.65;;
11090;SDS011;5599;52.210;21.046;2023-09-19T03:18:12;12.50;;;11.25;;
11090;SDS011;5599;52.210;21.046;2023-09-19T03:20:42;12.38;;;11.13;;
11090;SDS011;5599;52.210;21.046;2023-09-19T03:23:11;11.48;;;10.38;;
11090;SDS011;5599;52.210;21.046;2023-09-19T03:25:41;13.45;;;11.95;;
11090;SDS011;5599;52.210;21.046;2023-09-19T03:28:11;11.80;;;10.65;;
11090;SDS011;5599;52.210;21.046;2023-09-19T03:30:40;11.75;;;10.55;;
11090;SDS011;5599;52.210;21.046;2023-09-19T03:33:11;11.98;;;10.85;;
11090;SDS011;5599;52.210;21.046;2023-09-19T03:35:42;12.10;;;11.00;;
11090;SDS011;5599;52.210;21.046;2023-09-19T03:38:20;12.52;;;10.52;;
11090;SDS011;5599;52.210;21.046;2023-09-19T03:40:49;11.82;;;10.60;;
11090;SDS011;5599;52.210;21.046;2023-09-19T03:43:19;12.65;;;11.45;;
11090;SDS011;5599;52.210;21.046;2023-09-19T03:45:48;12.63;;;11.45;;
11090;SDS011;5599;52.210;21.046;2023-09-19T03:48:20;12.07;;;10.95;;
11090;SDS011;5599;52.210;21.046;2023-09-19T03:50:51;11.85;;;10.75;;
11090;SDS011;5599;52.210;21.046;2023-09-19T03:53:20;11.48;;;10.32;;
11090;SDS011;5599;52.210;21.046;2023-09-19T03:55:50;12.98;;;11.27;;
11090;SDS011;5599;52.210;21.046;2023-09-19T03:58:19;11.93;;;10.80;;
11090;SDS011;5599;52.210;21.046;2023-09-19T04:00:48;12.82;;;10.77;;
11090;SDS011;5599;52.210;21.046;2023-09-19T04:03:20;11.45;;;10.23;;
11090;SDS011;5599;52.210;21.046;2023-09-19T04:05:49;11.32;;;10.23;;
11090;SDS011;5599;52.210;21.046;2023-09-19T04:08:19;12.82;;;11.50;;
11090;SDS011;5599;52.210;21.046;2023-09-19T04:10:48;13.55;;;11.02;;
11090;SDS011;5599;52.210;21.046;2023-09-19T04:13:18;12.52;;;11.10;;
11090;SDS011;5599;52.210;21.046;2023-09-19T04:15:47;12.40;;;11.10;;
11090;SDS011;5599;52.210;21.046;2023-09-19T04:18:17;15.27;;;11.57;;
11090;SDS011;5599;52.210;21.046;2023-09-19T04:20:51;12.65;;;11.43;;
11090;SDS011;5599;52.210;21.046;2023-09-19T04:23:20;12.98;;;11.60;;
11090;SDS011;5599;52.210;21.046;2023-09-19T04:25:50;12.40;;;11.18;;
11090;SDS011;5599;52.210;21.046;2023-09-19T04:28:19;11.57;;;10.48;;
11090;SDS011;5599;52.210;21.046;2023-09-19T04:30:49;12.45;;;11.15;;
11090;SDS011;5599;52.210;21.046;2023-09-19T04:33:19;12.70;;;11.38;;
11090;SDS011;5599;52.210;21.046;2023-09-19T04:35:49;11.95;;;10.75;;
11090;SDS011;5599;52.210;21.046;2023-09-19T04:38:19;13.00;;;11.15;;
11090;SDS011;5599;52.210;21.046;2023-09-19T04:40:48;13.95;;;10.85;;
11090;SDS011;5599;52.210;21.046;2023-09-19T04:43:17;17.17;;;11.32;;
11090;SDS011;5599;52.210;21.046;2023-09-19T04:45:47;11.43;;;10.43;;
11090;SDS011;5599;52.210;21.046;2023-09-19T04:48:19;12.70;;;10.77;;
11090;SDS011;5599;52.210;21.046;2023-09-19T04:50:49;12.77;;;11.48;;
11090;SDS011;5599;52.210;21.046;2023-09-19T04:53:18;12.32;;;11.13;;
11090;SDS011;5599;52.210;21.046;2023-09-19T04:55:51;13.93;;;11.27;;
11090;SDS011;5599;52.210;21.046;2023-09-19T04:58:34;14.38;;;10.77;;
11090;SDS011;5599;52.210;21.046;2023-09-19T05:01:03;16.00;;;11.13;;
11090;SDS011;5599;52.210;21.046;2023-09-19T05:03:34;13.48;;;10.68;;
11090;SDS011;5599;52.210;21.046;2023-09-19T05:06:04;11.20;;;10.20;;
11090;SDS011;5599;52.210;21.046;2023-09-19T05:08:33;12.82;;;10.23;;
11090;SDS011;5599;52.210;21.046;2023-09-19T05:11:03;12.43;;;11.32;;
11090;SDS011;5599;52.210;21.046;2023-09-19T05:13:33;12.85;;;10.77;;
11090;SDS011;5599;52.210;21.046;2023-09-19T05:16:03;11.93;;;10.73;;
11090;SDS011;5599;52.210;21.046;2023-09-19T05:18:34;12.07;;;10.98;;
11090;SDS011;5599;52.210;21.046;2023-09-19T05:21:03;11.57;;;10.48;;
11090;SDS011;5599;52.210;21.046;2023-09-19T05:23:32;11.20;;;9.90;;
11090;SDS011;5599;52.210;21.046;2023-09-19T05:26:02;11.68;;;9.40;;
11090;SDS011;5599;52.210;21.046;2023-09-19T05:28:32;10.65;;;9.63;;
11090;SDS011;5599;52.210;21.046;2023-09-19T05:31:02;11.32;;;10.13;;
11090;SDS011;5599;52.210;21.046;2023-09-19T05:33:33;13.77;;;10.07;;
11090;SDS011;5599;52.210;21.046;2023-09-19T05:36:04;11.02;;;10.10;;
11090;SDS011;5599;52.210;21.046;2023-09-19T05:38:37;12.05;;;10.50;;
11090;SDS011;5599;52.210;21.046;2023-09-19T05:41:09;11.35;;;10.18;;
11090;SDS011;5599;52.210;21.046;2023-09-19T05:43:41;13.60;;;10.18;;
11090;SDS011;5599;52.210;21.046;2023-09-19T05:46:11;10.65;;;9.63;;
11090;SDS011;5599;52.210;21.046;2023-09-19T05:48:42;11.95;;;9.90;;
11090;SDS011;5599;52.210;21.046;2023-09-19T05:51:15;12.48;;;10.85;;
11090;SDS011;5599;52.210;21.046;2023-09-19T05:53:51;11.30;;;10.23;;
11090;SDS011;5599;52.210;21.046;2023-09-19T05:56:22;12.07;;;10.38;;
11090;SDS011;5599;52.210;21.046;2023-09-19T05:58:52;11.38;;;9.75;;
11090;SDS011;5599;52.210;21.046;2023-09-19T06:01:22;12.02;;;9.68;;
11090;SDS011;5599;52.210;21.046;2023-09-19T06:03:53;12.52;;;10.38;;
11090;SDS011;5599;52.210;21.046;2023-09-19T06:06:23;10.63;;;9.52;;
11090;SDS011;5599;52.210;21.046;2023-09-19T06:08:52;10.60;;;9.60;;
11090;SDS011;5599;52.210;21.046;2023-09-19T06:11:22;13.40;;;9.80;;
11090;SDS011;5599;52.210;21.046;2023-09-19T06:13:53;10.10;;;9.15;;
11090;SDS011;5599;52.210;21.046;2023-09-19T06:16:23;12.95;;;9.35;;
11090;SDS011;5599;52.210;21.046;2023-09-19T06:18:55;11.07;;;9.75;;
11090;SDS011;5599;52.210;21.046;2023-09-19T06:21:25;11.23;;;9.88;;
11090;SDS011;5599;52.210;21.046;2023-09-19T06:23:55;10.43;;;9.07;;
11090;SDS011;5599;52.210;21.046;2023-09-19T06:26:25;10.18;;;8.82;;
11090;SDS011;5599;52.210;21.046;2023-09-19T06:28:56;11.32;;;9.05;;
11090;SDS011;5599;52.210;21.046;2023-09-19T06:31:27;10.77;;;9.00;;
11090;SDS011;5599;52.210;21.046;2023-09-19T06:34:00;10.68;;;9.65;;
11090;SDS011;5599;52.210;21.046;2023-09-19T06:36:30;10.77;;;9.77;;
11090;SDS011;5599;52.210;21.046;2023-09-19T06:39:00;9.95;;;8.95;;
11090;SDS011;5599;52.210;21.046;2023-09-19T06:41:31;11.68;;;9.57;;
11090;SDS011;5599;52.210;21.046;2023-09-19T06:44:06;11.65;;;8.93;;
11090;SDS011;5599;52.210;21.046;2023-09-19T06:46:37;10.18;;;9.15;;
11090;SDS011;5599;52.210;21.046;2023-09-19T06:49:10;12.73;;;9.13;;
11090;SDS011;5599;52.210;21.046;2023-09-19T06:51:43;9.77;;;8.80;;
11090;SDS011;5599;52.210;21.046;2023-09-19T06:54:17;10.45;;;8.77;;
11090;SDS011;5599;52.210;21.046;2023-09-19T06:56:48;11.15;;;8.95;;
11090;SDS011;5599;52.210;21.046;2023-09-19T06:59:17;11.40;;;9.73;;
11090;SDS011;5599;52.210;21.046;2023-09-19T07:01:47;10.20;;;9.25;;
11090;SDS011;5599;52.210;21.046;2023-09-19T07:04:19;9.20;;;8.27;;
11090;SDS011;5599;52.210;21.046;2023-09-19T07:06:50;10.85;;;9.00;;
11090;SDS011;5599;52.210;21.046;2023-09-19T07:09:23;11.25;;;9.65;;
11090;SDS011;5599;52.210;21.046;2023-09-19T07:11:54;9.07;;;7.90;;
11090;SDS011;5599;52.210;21.046;2023-09-19T07:14:24;10.18;;;8.00;;
11090;SDS011;5599;52.210;21.046;2023-09-19T07:16:53;12.25;;;8.35;;
11090;SDS011;5599;52.210;21.046;2023-09-19T07:19:24;8.82;;;7.93;;
11090;SDS011;5599;52.210;21.046;2023-09-19T07:21:55;10.85;;;8.13;;
11090;SDS011;5599;52.210;21.046;2023-09-19T07:24:26;8.95;;;8.02;;
11090;SDS011;5599;52.210;21.046;2023-09-19T07:26:56;8.88;;;8.15;;
11090;SDS011;5599;52.210;21.046;2023-09-19T07:29:26;9.65;;;8.65;;
11090;SDS011;5599;52.210;21.046;2023-09-19T07:31:56;9.02;;;8.10;;
11090;SDS011;5599;52.210;21.046;2023-09-19T07:34:27;12.40;;;9.32;;
11090;SDS011;5599;52.210;21.046;2023-09-19T07:36:57;10.52;;;9.43;;
11090;SDS011;5599;52.210;21.046;2023-09-19T07:39:26;12.73;;;8.65;;
11090;SDS011;5599;52.210;21.046;2023-09-19T07:41:57;13.35;;;9.57;;
11090;SDS011;5599;52.210;21.046;2023-09-19T07:44:27;13.55;;;9.05;;
11090;SDS011;5599;52.210;21.046;2023-09-19T07:46:56;12.52;;;9.20;;
11090;SDS011;5599;52.210;21.046;2023-09-19T07:49:27;12.57;;;9.50;;
11090;SDS011;5599;52.210;21.046;2023-09-19T07:52:02;10.45;;;9.45;;
11090;SDS011;5599;52.210;21.046;2023-09-19T07:54:32;10.30;;;9.20;;
11090;SDS011;5599;52.210;21.046;2023-09-19T07:57:02;10.00;;;8.90;;
11090;SDS011;5599;52.210;21.046;2023-09-19T07:59:32;12.40;;;8.48;;
11090;SDS011;5599;52.210;21.046;2023-09-19T08:02:02;12.23;;;9.25;;
11090;SDS011;5599;52.210;21.046;2023-09-19T08:04:33;10.80;;;9.73;;
11090;SDS011;5599;52.210;21.046;2023-09-19T08:07:03;11.32;;;10.18;;
11090;SDS011;5599;52.210;21.046;2023-09-19T08:09:33;11.30;;;10.15;;
11090;SDS011;5599;52.210;21.046;2023-09-19T08:12:04;11.25;;;10.07;;
11090;SDS011;5599;52.210;21.046;2023-09-19T08:14:35;11.70;;;10.52;;
11090;SDS011;5599;52.210;21.046;2023-09-19T08:17:05;10.88;;;9.82;;
11090;SDS011;5599;52.210;21.046;2023-09-19T08:19:37;10.77;;;9.57;;
11090;SDS011;5599;52.210;21.046;2023-09-19T08:22:09;11.35;;;10.30;;
11090;SDS011;5599;52.210;21.046;2023-09-19T08:24:39;13.38;;;10.30;;
11090;SDS011;5599;52.210;21.046;2023-09-19T08:27:10;12.63;;;10.38;;
11090;SDS011;5599;52.210;21.046;2023-09-19T08:29:40;11.35;;;10.32;;
11090;SDS011;5599;52.210;21.046;2023-09-19T08:32:09;16.90;;;10.32;;
11090;SDS011;5599;52.210;21.046;2023-09-19T08:34:40;15.75;;;9.93;;
11090;SDS011;5599;52.210;21.046;2023-09-19T08:37:10;11.20;;;10.00;;
11090;SDS011;5599;52.210;21.046;2023-09-19T08:39:40;11.80;;;10.70;;
11090;SDS011;5599;52.210;21.046;2023-09-19T08:42:09;12.35;;;10.60;;
11090;SDS011;5599;52.210;21.046;2023-09-19T08:44:44;11.50;;;10.50;;
11090;SDS011;5599;52.210;21.046;2023-09-19T08:47:14;12.30;;;10.05;;
11090;SDS011;5599;52.210;21.046;2023-09-19T08:49:49;10.55;;;9.63;;
11090;SDS011;5599;52.210;21.046;2023-09-19T08:52:28;10.75;;;9.65;;
11090;SDS011;5599;52.210;21.046;2023-09-19T08:55:02;10.60;;;9.35;;
11090;SDS011;5599;52.210;21.046;2023-09-19T08:57:37;9.77;;;8.93;;
11090;SDS011;5599;52.210;21.046;2023-09-19T09:00:10;9.80;;;8.60;;
11090;SDS011;5599;52.210;21.046;2023-09-19T09:02:44;9.45;;;8.43;;
11090;SDS011;5599;52.210;21.046;2023-09-19T09:05:17;9.73;;;8.13;;
11090;SDS011;5599;52.210;21.046;2023-09-19T09:07:50;9.50;;;8.70;;
11090;SDS011;5599;52.210;21.046;2023-09-19T09:10:22;8.40;;;7.70;;
11090;SDS011;5599;52.210;21.046;2023-09-19T09:12:52;13.10;;;8.13;;
11090;SDS011;5599;52.210;21.046;2023-09-19T09:15:23;9.05;;;8.30;;
11090;SDS011;5599;52.210;21.046;2023-09-19T09:17:53;7.45;;;6.75;;
11090;SDS011;5599;52.210;21.046;2023-09-19T09:20:27;8.38;;;7.53;;
11090;SDS011;5599;52.210;21.046;2023-09-19T09:22:57;8.52;;;7.72;;
11090;SDS011;5599;52.210;21.046;2023-09-19T09:28:22;7.38;;;6.78;;
11090;SDS011;5599;52.210;21.046;2023-09-19T09:30:52;7.45;;;6.63;;
11090;SDS011;5599;52.210;21.046;2023-09-19T09:33:23;8.70;;;6.55;;
11090;SDS011;5599;52.210;21.046;2023-09-19T09:35:55;9.30;;;6.82;;
11090;SDS011;5599;52.210;21.046;2023-09-19T09:38:28;7.90;;;6.88;;
11090;SDS011;5599;52.210;21.046;2023-09-19T09:41:00;8.27;;;6.57;;
11090;SDS011;5599;52.210;21.046;2023-09-19T09:43:40;8.23;;;6.18;;
11090;SDS011;5599;52.210;21.046;2023-09-19T09:46:14;7.07;;;6.32;;
11090;SDS011;5599;52.210;21.046;2023-09-19T09:49:02;10.30;;;6.22;;
11090;SDS011;5599;52.210;21.046;2023-09-19T09:51:50;15.93;;;6.60;;
11090;SDS011;5599;52.210;21.046;2023-09-19T09:54:28;9.65;;;5.75;;
11090;SDS011;5599;52.210;21.046;2023-09-19T09:57:04;8.85;;;5.80;;
11090;SDS011;5599;52.210;21.046;2023-09-19T09:59:45;7.80;;;5.38;;
11090;SDS011;5599;52.210;21.046;2023-09-19T10:02:21;10.20;;;6.00;;
11090;SDS011;5599;52.210;21.046;2023-09-19T10:04:57;11.32;;;5.82;;
11090;SDS011;5599;52.210;21.046;2023-09-19T10:07:38;10.23;;;7.25;;
11090;SDS011;5599;52.210;21.046;2023-09-19T10:10:13;11.02;;;6.43;;
11090;SDS011;5599;52.210;21.046;2023-09-19T10:12:48;8.13;;;6.55;;
11090;SDS011;5599;52.210;21.046;2023-09-19T10:15:23;10.13;;;5.95;;
11090;SDS011;5599;52.210;21.046;2023-09-19T10:17:57;9.13;;;6.72;;
11090;SDS011;5599;52.210;21.046;2023-09-19T10:20:30;7.78;;;6.70;;
11090;SDS011;5599;52.210;21.046;2023-09-19T10:23:07;9.13;;;6.32;;
11090;SDS011;5599;52.210;21.046;2023-09-19T10:25:41;7.13;;;6.43;;
11090;SDS011;5599;52.210;21.046;2023-09-19T10:28:13;7.05;;;5.97;;
11090;SDS011;5599;52.210;21.046;2023-09-19T10:30:51;11.05;;;6.63;;
11090;SDS011;5599;52.210;21.046;2023-09-19T10:33:22;9.13;;;6.55;;
11090;SDS011;5599;52.210;21.046;2023-09-19T10:35:54;7.78;;;6.93;;
11090;SDS011;5599;52.210;21.046;2023-09-19T10:38:29;8.55;;;6.55;;
11090;SDS011;5599;52.210;21.046;2023-09-19T10:41:01;8.57;;;6.72;;
11090;SDS011;5599;52.210;21.046;2023-09-19T10:43:33;9.90;;;6.97;;
11090;SDS011;5599;52.210;21.046;2023-09-19T10:46:07;8.13;;;7.13;;
11090;SDS011;5599;52.210;21.046;2023-09-19T10:48:40;9.15;;;7.40;;
11090;SDS011;5599;52.210;21.046;2023-09-19T10:51:16;8.35;;;7.45;;
11090;SDS011;5599;52.210;21.046;2023-09-19T10:53:54;8.98;;;7.72;;
11090;SDS011;5599;52.210;21.046;2023-09-19T10:56:30;9.35;;;6.63;;
11090;SDS011;5599;52.210;21.046;2023-09-19T10:59:07;7.00;;;5.70;;
11090;SDS011;5599;52.210;21.046;2023-09-19T11:01:44;9.43;;;7.60;;
11090;SDS011;5599;52.210;21.046;2023-09-19T11:04:26;8.55;;;7.53;;
11090;SDS011;5599;52.210;21.046;2023-09-19T11:07:01;6.43;;;5.80;;
11090;SDS011;5599;52.210;21.046;2023-09-19T11:09:48;8.35;;;6.53;;
11090;SDS011;5599;52.210;21.046;2023-09-19T11:21:41;9.05;;;5.50;;
11090;SDS011;5599;52.210;21.046;2023-09-19T11:24:27;6.72;;;5.80;;
11090;SDS011;5599;52.210;21.046;2023-09-19T11:27:15;6.22;;;5.53;;
11090;SDS011;5599;52.210;21.046;2023-09-19T11:29:47;5.82;;;4.45;;
11090;SDS011;5599;52.210;21.046;2023-09-19T11:32:17;5.15;;;4.60;;
11090;SDS011;5599;52.210;21.046;2023-09-19T11:35:25;5.40;;;4.88;;
11090;SDS011;5599;52.210;21.046;2023-09-19T11:41:42;4.80;;;4.40;;
11090;SDS011;5599;52.210;21.046;2023-09-19T11:44:34;6.07;;;5.47;;
11090;SDS011;5599;52.210;21.046;2023-09-19T11:47:05;7.13;;;5.50;;
11090;SDS011;5599;52.210;21.046;2023-09-19T11:49:36;6.35;;;5.50;;
11090;SDS011;5599;52.210;21.046;2023-09-19T11:52:10;5.85;;;5.35;;
11090;SDS011;5599;52.210;21.046;2023-09-19T11:54:54;4.95;;;4.40;;
11090;SDS011;5599;52.210;21.046;2023-09-19T11:57:25;7.68;;;5.10;;
11090;SDS011;5599;52.210;21.046;2023-09-19T11:59:59;6.10;;;5.07;;
11090;SDS011;5599;52.210;21.046;2023-09-19T12:02:38;5.15;;;4.70;;
11090;SDS011;5599;52.210;21.046;2023-09-19T12:05:12;4.93;;;4.43;;
11090;SDS011;5599;52.210;21.046;2023-09-19T12:07:42;6.30;;;4.90;;
11090;SDS011;5599;52.210;21.046;2023-09-19T12:10:15;5.75;;;4.20;;
11090;SDS011;5599;52.210;21.046;2023-09-19T12:12:47;4.63;;;4.22;;
11090;SDS011;5599;52.210;21.046;2023-09-19T12:15:23;7.32;;;5.07;;
11090;SDS011;5599;52.210;21.046;2023-09-19T12:17:59;5.43;;;4.90;;
11090;SDS011;5599;52.210;21.046;2023-09-19T12:20:41;5.80;;;4.85;;
11090;SDS011;5599;52.210;21.046;2023-09-19T12:23:19;6.60;;;5.00;;
11090;SDS011;5599;52.210;21.046;2023-09-19T12:25:48;6.30;;;5.65;;
11090;SDS011;5599;52.210;21.046;2023-09-19T12:28:21;6.15;;;5.40;;
11090;SDS011;5599;52.210;21.046;2023-09-19T12:30:53;5.68;;;4.85;;
11090;SDS011;5599;52.210;21.046;2023-09-19T12:33:24;6.30;;;5.72;;
11090;SDS011;5599;52.210;21.046;2023-09-19T12:35:55;8.20;;;5.75;;
11090;SDS011;5599;52.210;21.046;2023-09-19T12:38:26;6.68;;;5.93;;
11090;SDS011;5599;52.210;21.046;2023-09-19T12:41:01;6.60;;;5.70;;
11090;SDS011;5599;52.210;21.046;2023-09-19T12:43:34;8.65;;;6.30;;
11090;SDS011;5599;52.210;21.046;2023-09-19T12:46:07;8.23;;;5.88;;
11090;SDS011;5599;52.210;21.046;2023-09-19T12:48:37;6.65;;;5.75;;
11090;SDS011;5599;52.210;21.046;2023-09-19T12:51:11;6.95;;;5.85;;
11090;SDS011;5599;52.210;21.046;2023-09-19T12:53:43;7.90;;;5.85;;
11090;SDS011;5599;52.210;21.046;2023-09-19T12:56:17;10.52;;;6.07;;
11090;SDS011;5599;52.210;21.046;2023-09-19T12:58:50;8.73;;;6.07;;
11090;SDS011;5599;52.210;21.046;2023-09-19T13:01:24;6.50;;;5.90;;
11090;SDS011;5599;52.210;21.046;2023-09-19T13:04:14;6.45;;;5.85;;
11090;SDS011;5599;52.210;21.046;2023-09-19T13:06:48;8.65;;;6.22;;
11090;SDS011;5599;52.210;21.046;2023-09-19T13:09:19;7.97;;;6.20;;
11090;SDS011;5599;52.210;21.046;2023-09-19T13:11:50;7.57;;;6.22;;
11090;SDS011;5599;52.210;21.046;2023-09-19T13:14:21;5.28;;;4.82;;
11090;SDS011;5599;52.210;21.046;2023-09-19T13:16:57;6.60;;;5.60;;
11090;SDS011;5599;52.210;21.046;2023-09-19T13:19:34;6.65;;;5.63;;
11090;SDS011;5599;52.210;21.046;2023-09-19T13:25:09;7.82;;;5.93;;
11090;SDS011;5599;52.210;21.046;2023-09-19T13:27:42;7.00;;;5.63;;
11090;SDS011;5599;52.210;21.046;2023-09-19T13:30:12;6.70;;;5.72;;
11090;SDS011;5599;52.210;21.046;2023-09-19T13:32:44;7.40;;;5.57;;
11090;SDS011;5599;52.210;21.046;2023-09-19T13:35:14;7.07;;;5.80;;
11090;SDS011;5599;52.210;21.046;2023-09-19T13:37:45;7.28;;;5.95;;
11090;SDS011;5599;52.210;21.046;2023-09-19T13:40:16;7.00;;;5.90;;
11090;SDS011;5599;52.210;21.046;2023-09-19T13:42:45;6.28;;;5.53;;
11090;SDS011;5599;52.210;21.046;2023-09-19T13:45:15;6.40;;;5.78;;
11090;SDS011;5599;52.210;21.046;2023-09-19T13:47:50;8.38;;;6.20;;
11090;SDS011;5599;52.210;21.046;2023-09-19T13:50:20;8.98;;;6.55;;
11090;SDS011;5599;52.210;21.046;2023-09-19T13:52:51;7.38;;;5.80;;
11090;SDS011;5599;52.210;21.046;2023-09-19T13:55:21;7.75;;;6.55;;
11090;SDS011;5599;52.210;21.046;2023-09-19T13:57:52;8.10;;;5.75;;
11090;SDS011;5599;52.210;21.046;2023-09-19T14:00:23;7.47;;;6.03;;
11090;SDS011;5599;52.210;21.046;2023-09-19T14:02:54;6.97;;;6.28;;
11090;SDS011;5599;52.210;21.046;2023-09-19T14:05:23;8.57;;;6.10;;
11090;SDS011;5599;52.210;21.046;2023-09-19T14:07:54;7.47;;;6.68;;
11090;SDS011;5599;52.210;21.046;2023-09-19T14:10:24;9.23;;;6.28;;
11090;SDS011;5599;52.210;21.046;2023-09-19T14:12:54;8.85;;;6.18;;
11090;SDS011;5599;52.210;21.046;2023-09-19T14:15:24;9.45;;;6.47;;
11090;SDS011;5599;52.210;21.046;2023-09-19T14:17:59;8.15;;;6.22;;
11090;SDS011;5599;52.210;21.046;2023-09-19T14:20:28;6.68;;;5.75;;
11090;SDS011;5599;52.210;21.046;2023-09-19T14:22:58;8.52;;;6.43;;
11090;SDS011;5599;52.210;21.046;2023-09-19T14:25:29;7.88;;;6.15;;
11090;SDS011;5599;52.210;21.046;2023-09-19T14:27:58;8.40;;;7.22;;
11090;SDS011;5599;52.210;21.046;2023-09-19T14:30:27;8.02;;;7.22;;
11090;SDS011;5599;52.210;21.046;2023-09-19T14:32:58;6.70;;;6.10;;
11090;SDS011;5599;52.210;21.046;2023-09-19T14:35:28;7.15;;;6.55;;
11090;SDS011;5599;52.210;21.046;2023-09-19T14:37:57;7.95;;;6.78;;
11090;SDS011;5599;52.210;21.046;2023-09-19T14:40:27;8.50;;;7.18;;
11090;SDS011;5599;52.210;21.046;2023-09-19T14:42:57;7.00;;;6.30;;
11090;SDS011;5599;52.210;21.046;2023-09-19T14:45:26;8.98;;;5.70;;
11090;SDS011;5599;52.210;21.046;2023-09-19T14:47:55;6.45;;;5.43;;
11090;SDS011;5599;52.210;21.046;2023-09-19T14:50:26;5.95;;;5.40;;
11090;SDS011;5599;52.210;21.046;2023-09-19T14:52:57;5.55;;;4.97;;
11090;SDS011;5599;52.210;21.046;2023-09-19T14:55:29;7.72;;;5.10;;
11090;SDS011;5599;52.210;21.046;2023-09-19T14:58:01;5.20;;;4.63;;
11090;SDS011;5599;52.210;21.046;2023-09-19T15:00:31;5.68;;;4.50;;
11090;SDS011;5599;52.210;21.046;2023-09-19T15:03:02;5.82;;;4.07;;
11090;SDS011;5599;52.210;21.046;2023-09-19T15:05:35;7.90;;;4.03;;
11090;SDS011;5599;52.210;21.046;2023-09-19T15:08:05;5.22;;;3.83;;
11090;SDS011;5599;52.210;21.046;2023-09-19T15:10:35;4.63;;;4.07;;
11090;SDS011;5599;52.210;21.046;2023-09-19T15:13:05;5.15;;;4.13;;
11090;SDS011;5599;52.210;21.046;2023-09-19T15:15:35;4.07;;;3.67;;
11090;SDS011;5599;52.210;21.046;2023-09-19T15:18:05;4.32;;;3.92;;
11090;SDS011;5599;52.210;21.046;2023-09-19T15:20:44;4.97;;;3.92;;
11090;SDS011;5599;52.210;21.046;2023-09-19T15:23:15;6.00;;;3.88;;
11090;SDS011;5599;52.210;21.046;2023-09-19T15:25:58;3.88;;;3.58;;